Alanson, MI (49706)

4:44 AM EST on January 31, 2015 (GMT -0500)
Alanson Swing Bridge | Change Station
CLOSE
Current Station
Personal Weather Station
Location: Alanson, MI
Elevation: 597 ft
Nearby Weather Stations

Elev 597 ft 45.44 °N, 84.79 °W | Updated 7 seconds ago

Snow
Snow
14.6 °F
Feels Like 15 °F
N
0.0
Wind Variable Wind from WSW
Gusts 0.4 mph

Today
High -- | Low -- °F
--% Chance of Precip.
Yesterday
High -- | Low -- °F
Precip. -- in
8:01 AM 5:44 PM
Waxing Gibbous, 88% visible
Pressure 30.18 in
Visibility 2.0 miles
Clouds Overcast 1400 ft
Windchill 15 °F
Dew Point 9 °F
Humidity 79%
Rainfall 0.00 in
Snow Depth Not available.
UV 0 out of 12
Pollen .10 out of 12
Air Quality Not available.
Flu Activity Not available.
METAR KMGN 310935Z AUTO 00000KT 2SM -SN OVC014 M08/M10 A3018 RMK AO2 T10891107

More Conditions Fewer Conditions

Pressure 30.18 in
Visibility 2.0 miles
Clouds Overcast 1400 ft
Windchill 15 °F
Dew Point 9 °F
Humidity 79%
Rainfall 0.00 in
Snow Depth Not available.
UV 0 out of 12
Pollen .10 out of 12
Air Quality Not available.
Flu Activity Not available.
METAR KMGN 310935Z AUTO 00000KT 2SM -SN OVC014 M08/M10 A3018 RMK AO2 T10891107

More Conditions Fewer Conditions

Nowcast | as of 4:00 am EST on January 31, 2015

At 5 am...snow. Temperature 19. Southwest winds 6 mph. At 7 am...cloudy. Chance of flurries. Temperature 18. Light winds. At 9 am...cloudy. Chance of flurries. Temperature 20. Southwest winds 6 mph. At 11 am...cloudy. Chance of flurries. Temperature 23. West winds 8 mph.

×

10-Day Weather Forecast

Almanac

Astronomy

Jan. 31, 2015 Rise Set
Actual Time
Civil Twilight
Nautical Twilight
Astronomical Twilight
Moon
Length of Visible Light
Length of Day
Tomorrow will be .
, % of the Moon is Illuminated

Today's Extremes

State Highs State Lows

Community

WunderPhotos

Upload Photos

1,792,021 photos uploaded!

WunderBlogs® & News

Nearby

Air Quality

  Air Quality AQ Index Pollutant
Not available.

Snow Depth

Station Depth Elevation

Earthquake Activity

City Distance Mag. Time & Date
Minimum magnitude displayed is 2.5.

Coastal Water Temperatures

Place Temperature

Nearby Weather Stations